Aviation Digital Data Service (ADDS)

Output produced by METARs form (1346 UTC 10 July 2020)
found at http://www.aviationweather.gov/metar/data/
 
KPIB 101256Z AUTO VRB03KT 6SM BR FEW047 26/25 A3004 RMK AO2 LTG DSNT NE AND E SLP169 T02560250 PNO $
KPIB 101156Z AUTO VRB03KT 6SM BR CLR 25/25 A3003 RMK AO2 SLP165 6//// 7//// T02500250 10250 20239 51014 PNO $
KPIB 101056Z AUTO 26004KT 7SM CLR 25/24 A3001 RMK AO2 SLP160 T02500244 PNO $
KPIB 100956Z AUTO 00000KT 6SM BR FEW046 24/24 A3001 RMK AO2 SLP157 T02440244 PNO $
KPIB 100856Z AUTO VRB03KT 7SM CLR 25/24 A2998 RMK AO2 SLP151 6//// T02500244 50005 PNO $
KPIB 100756Z AUTO 00000KT 8SM CLR 24/24 A2999 RMK AO2 SLP151 T02440239 PNO $
KPIB 100656Z AUTO 00000KT 5SM BR CLR 24/24 A2998 RMK AO2 SLP150 T02440244 PNO $
KPIB 100556Z AUTO 00000KT 4SM BR CLR 24/24 A2997 RMK AO2 SLP145 6//// T02440244 10317 20244 403390217 51009 PNO $
KPIB 100456Z AUTO 00000KT 8SM CLR 25/24 A2997 RMK AO2 SLP145 T02500244 PNO $
KPIB 100356Z AUTO 00000KT 8SM CLR 26/25 A2995 RMK AO2 SLP139 T02560250 PNO $
KPIB 100256Z AUTO 00000KT 10SM CLR 26/25 A2994 RMK AO2 SLP136 6//// T02610250 55001 PNO $
KPIB 100156Z AUTO 20004KT 9SM CLR 26/26 A2993 RMK AO2 SLP131 T02610256 PNO $
KPIB 100056Z AUTO 00000KT 10SM CLR 28/26 A2994 RMK AO2 SLP136 T02780261 PNO $
KPIB 092356Z AUTO 00000KT 9SM CLR 32/25 A2995 RMK AO2 TSE10 SLP137 6//// T03170250 10339 20306 53000 PNO $
KPIB 092316Z AUTO VRB03KT 10SM CLR 32/24 A2994 RMK AO2 TSE10 PNO $
KPIB 092256Z AUTO VRB04KT 9SM VCTS CLR 32/24 A2994 RMK AO2 TSB55 SLP134 T03220244 PNO $
KPIB 092156Z AUTO VRB04KT 9SM CLR 33/25 A2995 RMK AO2 SLP139 T03280250 PNO $
KPIB 092056Z AUTO 23005KT 10SM FEW037 32/24 A2994 RMK AO2 SLP137 6//// T03220244 56016 PNO $
KPIB 091956Z AUTO 21004KT 9SM FEW035 32/25 A2995 RMK AO2 SLP140 T03220250 PNO $
KPIB 091856Z AUTO VRB05KT 10SM FEW029 SCT041 32/25 A2997 RMK AO2 SLP146 T03170250 PNO $
KPIB 091756Z AUTO VRB04KT 8SM FEW026 31/25 A2999 RMK AO2 SLP153 6//// T03110250 10311 20239 58004 PNO $
KPIB 091656Z AUTO VRB03KT 9SM FEW023 BKN032 30/25 A3001 RMK AO2 SLP158 T03000250 PNO $
KPIB 091651Z AUTO VRB03KT 8SM FEW021 BKN030 OVC036 29/25 A3001 RMK AO2 PNO $
KPIB 091556Z AUTO VRB04KT 7SM BKN021 OVC027 29/26 A3000 RMK AO2 SLP156 T02940256 PNO $
KPIB 091456Z AUTO VRB03KT 9SM OVC017 28/25 A2999 RMK AO2 SLP152 6//// T02780250 56000 PNO $
KPIB 091448Z AUTO VRB04KT 6SM HZ OVC015 28/25 A2999 RMK AO2 PNO $
KPIB 091423Z AUTO VRB04KT 7SM OVC011 27/26 A2999 RMK AO2 PNO $
KPIB 091356Z AUTO VRB06KT 6SM BR OVC007 27/25 A2999 RMK AO2 CIG 005V012 SLP152 T02670250 PNO $
KPIB 091256Z AUTO VRB03KT 5SM BR BKN005 OVC012 24/24 A2999 RMK AO2 SLP153 T02440244 PNO $
KPIB 091236Z AUTO VRB03KT 4SM BR OVC005 24/24 A2999 RMK AO2 PNO $
KPIB 091204Z AUTO 00000KT 4SM BR BKN003 BKN008 24/24 A2998 RMK AO2 PNO $
KPIB 091156Z AUTO 00000KT 4SM BR SCT003 24/24 A2998 RMK AO2 SLP148 6//// 7//// T02390239 10239 20217 53010 PNO $
KPIB 091125Z AUTO VRB03KT 4SM BR FEW003 23/23 A2997 RMK AO2 PNO $
KPIB 091056Z AUTO 00000KT 6SM BR CLR 23/23 A2996 RMK AO2 SLP144 T02280228 PNO $
KPIB 090956Z AUTO 00000KT 7SM CLR 23/23 A2996 RMK AO2 SLP142 T02280228 PNO $
KPIB 090856Z AUTO 00000KT 8SM CLR 22/22 A2995 RMK AO2 SLP138 6//// T02220222 55008 PNO $
KPIB 090756Z AUTO 00000KT 3SM BR CLR 22/22 A2994 RMK AO2 SLP138 T02220222 PNO $
KPIB 090728Z AUTO 00000KT 10SM SCT028 22/22 A2995 RMK AO2 PNO $
KPIB 090719Z AUTO 00000KT 10SM BKN028 22/22 A2995 RMK AO2 PNO $
KPIB 090656Z AUTO 00000KT 9SM FEW026 22/22 A2995 RMK AO2 SLP140 T02220222 PNO $
KPIB 090556Z AUTO 19004KT 10SM FEW002 SCT027 23/23 A2997 RMK AO2 SLP146 6//// T02280228 10233 20228 403110211 50000 PNO $
KPIB 090549Z AUTO 20003KT 10SM SCT002 BKN027 23/23 A2997 RMK AO2 PNO $
KPIB 090456Z AUTO 20004KT 9SM OVC002 23/23 A2998 RMK AO2 SLP149 T02280228 PNO $
KPIB 090411Z AUTO 00000KT 6SM BR OVC002 23/23 A2997 RMK AO2 PNO $
KPIB 090356Z AUTO 00000KT 8SM OVC004 23/23 A2998 RMK AO2 SLP148 T02280228 PNO $
KPIB 090256Z AUTO 12003KT 10SM OVC004 23/23 A2997 RMK AO2 SLP146 6//// T02280228 53007 PNO $
KPIB 090217Z AUTO 00000KT 10SM BKN004 23/23 A2996 RMK AO2 PNO $
KPIB 090203Z AUTO 00000KT 10SM SCT004 23/23 A2996 RMK AO2 PNO $
KPIB 090156Z AUTO 00000KT 10SM BKN004 23/23 A2996 RMK AO2 CIG 003V007 SLP142 T02280228 PNO $
KPIB 090135Z AUTO 15003KT 10SM BKN004 23/23 A2996 RMK AO2 CIG 003V007 PNO $
KPIB 090056Z AUTO 16004KT 10SM SCT004 23/23 A2996 RMK AO2 SLP143 T02330233 PNO $
KPIB 082356Z AUTO 09003KT 10SM FEW004 23/23 A2995 RMK AO2 RAE37 SLP140 6//// T02330233 10306 20228 57022 PNO $
KPIB 082256Z AUTO 00000KT 10SM -RA FEW004 BKN047 OVC060 23/23 A2996 RMK AO2 TSE20 PRESFR SLP143 T02330228 PNO $
KPIB 082239Z AUTO 15003KT 9SM -RA FEW004 BKN060 OVC070 23/23 A2998 RMK AO2 LTG DSNT SE TSE20 PRESFR PNO $
KPIB 082226Z AUTO 15004KT 9SM -RA FEW020 OVC070 23/23 A2999 RMK AO2 LTG DSNT SE AND S TSE20 PNO $
KPIB 082156Z AUTO 18004KT 8SM -TSRA OVC075 23/23 A3001 RMK AO2 LTG DSNT ALQDS TSB30 SLP160 T02330233 PNO $
KPIB 082136Z AUTO 15004KT 10SM VCTS -RA FEW049 SCT065 BKN080 23/23 A3001 RMK AO2 LTG DSNT S AND W TSB30 PNO $
KPIB 082056Z AUTO 00000KT 10SM -RA FEW036 23/23 A3002 RMK AO2 LTG DSNT SE-SW TSE02 SLP162 6//// T02330233 53013 PNO $
KPIB 082016Z AUTO 00000KT 10SM -RA SCT003 SCT021 BKN035 23/23 A3001 RMK AO2 LTG DSNT ALQDS TSE02 PNO $
KPIB 082007Z AUTO 00000KT 10SM -RA BKN003 BKN011 OVC034 23/23 A3001 RMK AO2 LTG DSNT ALQDS TSE02 PNO $
KPIB 082001Z AUTO 06003KT 6SM VCTS -RA BR SCT005 BKN011 OVC036 23/23 A3000 RMK AO2 LTG DSNT ALQDS CIG 007V019 PNO $
KPIB 081956Z AUTO 07004KT 2 1/2SM VCTS -RA BR SCT007 BKN020 OVC036 23/23 A3000 RMK AO2 LTG DSNT ALQDS RAE06B28 SLP158 T02330233 PNO $
KPIB 081949Z AUTO 35004KT 2 1/2SM VCTS +RA BR SCT009 BKN020 OVC046 23/23 A3001 RMK AO2 VIS 1 3/4V4 LTG DSNT ALQDS RAE06B28 PNO $
KPIB 081940Z AUTO 34005KT 4SM VCTS RA BR SCT011 BKN024 OVC043 23/23 A3001 RMK AO2 LTG DSNT ALQDS RAE06B28 PNO $
KPIB 081906Z AUTO 34008KT 10SM TS FEW014 SCT030 BKN065 24/24 A3000 RMK AO2 LTG DSNT ALQDS RAE06 PNO $
KPIB 081856Z AUTO 31003KT 5SM -TSRA BR FEW002 SCT014 BKN026 24/24 A2999 RMK AO2 LTG DSNT ALQDS TSB17RAB22 SLP152 T02440239 PNO $
KPIB 081849Z AUTO VRB04KT 3SM +TSRA BR FEW011 BKN028 OVC050 24/23 A2999 RMK AO2 LTG DSNT ALQDS TSB17RAB22 PNO $
KPIB 081833Z AUTO 30014G19KT 2 1/2SM +TSRA BR FEW014 BKN026 BKN039 27/26 A2999 RMK AO2 LTG DSNT ALQDS TSB17RAB22 PNO $
KPIB 081823Z AUTO 23004KT 10SM VCTS -RA FEW023 SCT028 BKN047 29/26 A2996 RMK AO2 LTG DSNT ALQDS TSB17RAB22 PNO $
KPIB 081756Z AUTO 00000KT 10SM FEW023 BKN028 BKN038 29/26 A2998 RMK AO2 LTG DSNT ALQDS SLP148 6//// T02940261 10311 20222 58015 PNO $
KPIB 081656Z AUTO VRB05KT 10SM FEW019 SCT037 30/26 A3000 RMK AO2 LTG DSNT SE SLP157 T03000256 PNO $
KPIB 081604Z AUTO VRB04KT 9SM SCT013 BKN022 29/26 A3002 RMK AO2 LTG DSNT S PNO $
KPIB 081556Z AUTO 21006KT 10SM BKN013 BKN022 BKN027 28/26 A3002 RMK AO2 LTG DSNT S SLP163 T02830256 PNO $
KPIB 081537Z AUTO 24007KT 200V280 9SM BKN011 BKN029 29/26 A3003 RMK AO2 LTG DSNT S AND SW PNO $
KPIB 081505Z AUTO VRB05KT 8SM BKN007 BKN013 27/26 A3004 RMK AO2 LTG DSNT SW CIG 005V010 PNO $
KPIB 081456Z AUTO VRB03KT 7SM BKN005 OVC010 27/26 A3004 RMK AO2 LTG DSNT SW CIG 004V008 SLP170 6//// T02670256 53006 PNO $
KPIB 081446Z AUTO VRB04KT 7SM OVC005 26/26 A3004 RMK AO2 LTG DSNT SW PNO $
KPIB 081406Z AUTO 00000KT 4SM BR OVC003 24/24 A3004 RMK AO2 PNO $
KPIB 081356Z AUTO 00000KT 2 1/2SM BR OVC003 24/24 A3004 RMK AO2 VIS 1 1/2V4 SLP168 T02440244 PNO $
KPIB 081334Z AUTO 00000KT 1 1/4SM BR OVC003 24/24 A3003 RMK AO2 PNO $
KPIB 081321Z AUTO 00000KT 3/4SM BR OVC003 24/24 A3003 RMK AO2 RVRNO PNO $
KPIB 081313Z AUTO 00000KT 1SM BR OVC003 23/23 A3003 RMK AO2 RVRNO PNO $
KPIB 081256Z AUTO 00000KT 2SM BR OVC003 23/23 A3002 RMK AO2 SLP164 T02280228 PNO $
KPIB 081247Z AUTO 00000KT 1SM BR OVC003 23/23 A3002 RMK AO2 RVRNO PNO $
KPIB 081240Z AUTO 00000KT 1/2SM FG OVC003 23/23 A3003 RMK AO2 RVRNO PNO $
KPIB 081156Z AUTO 00000KT 1/4SM FG OVC003 22/22 A3002 RMK AO2 SLP164 6//// 7//// T02170217 10222 20211 51003 RVRNO PNO $
KPIB 081153Z AUTO 00000KT 1/4SM FG OVC003 22/22 A3002 RMK AO2 RVRNO PNO $
KPIB 081142Z AUTO 00000KT 1/2SM FG OVC003 22/22 A3002 RMK AO2 RVRNO PNO $
KPIB 081139Z AUTO 00000KT 1SM BR BKN003 22/22 A3002 RMK AO2 RVRNO PNO $
KPIB 081133Z AUTO 00000KT 2 1/2SM BR BKN003 22/22 A3002 RMK AO2 PNO $
KPIB 081116Z AUTO 00000KT 5SM BR FEW003 22/22 A3002 RMK AO2 PNO $
KPIB 081056Z AUTO 00000KT 8SM FEW010 22/22 A3002 RMK AO2 SLP164 T02170217 PNO $
KPIB 081041Z AUTO 00000KT 8SM SCT010 22/22 A3002 RMK AO2 PNO $
KPIB 081020Z AUTO 00000KT 9SM BKN010 22/22 A3002 RMK AO2 PNO $
KPIB 080956Z AUTO 00000KT 9SM CLR 22/22 A3001 RMK AO2 SLP161 T02170217 PNO $
KPIB 080908Z AUTO 00000KT 3SM BR CLR 22/22 A3000 RMK AO2 PNO $
KPIB 080903Z AUTO 00000KT 1 1/4SM BR CLR 21/21 A3000 RMK AO2 PNO $
KPIB 080856Z AUTO 00000KT 3/4SM BR CLR 21/21 A3000 RMK AO2 SLP157 6//// T02110211 56003 RVRNO PNO $
KPIB 080853Z AUTO 00000KT 1SM BR CLR 22/22 A3000 RMK AO2 RVRNO PNO $
KPIB 080843Z AUTO 00000KT 1 1/2SM BR CLR 22/22 A3001 RMK AO2 PNO $
KPIB 080835Z AUTO 00000KT 3SM BR CLR 22/22 A3001 RMK AO2 PNO $
KPIB 080826Z AUTO 00000KT 1 3/4SM BR CLR 22/22 A3000 RMK AO2 VIS 1V5 PNO $
KPIB 080756Z AUTO 00000KT 7SM CLR 22/22 A3000 RMK AO2 SLP157 T02220222 PNO $
KPIB 080656Z AUTO 00000KT 3SM BR CLR 22/22 A3001 RMK AO2 SLP160 T02170217 PNO $
KPIB 080654Z AUTO 00000KT 2 1/2SM BR CLR 22/22 A3001 RMK AO2 VIS 1 3/4V5 PNO $
KPIB 080639Z AUTO 00000KT 1 3/4SM BR CLR 22/22 A3002 RMK AO2 PNO $
KPIB 080556Z AUTO 00000KT 8SM FEW001 22/22 A3002 RMK AO2 SLP164 6//// T02220222 10233 20222 402940222 50005 PNO $
KPIB 080525Z AUTO 00000KT 4SM BR SCT001 22/22 A3002 RMK AO2 PNO $
KPIB 080518Z AUTO 00000KT 3SM BR BKN001 22/22 A3003 RMK AO2 PNO $
KPIB 080513Z AUTO 00000KT 1 1/4SM BR BKN001 22/22 A3003 RMK AO2 PNO $
KPIB 080459Z AUTO 00000KT 3/4SM BR VV001 22/22 A3003 RMK AO2 RVRNO PNO $
KPIB 080456Z AUTO 00000KT 3/4SM BR CLR 22/22 A3003 RMK AO2 SLP164 T02220222 RVRNO PNO $
KPIB 080447Z AUTO 00000KT 1 3/4SM BR CLR 22/22 A3002 RMK AO2 VIS 1V5 PNO $
KPIB 080440Z AUTO 00000KT 3SM BR FEW002 22/22 A3002 RMK AO2 PNO $
KPIB 080435Z AUTO 00000KT 1 1/2SM BR FEW002 22/22 A3002 RMK AO2 PNO $
KPIB 080428Z AUTO 00000KT 2SM BR FEW002 22/22 A3002 RMK AO2 VIS 3/4V5 PNO $
KPIB 080356Z AUTO 00000KT 9SM CLR 22/22 A3002 RMK AO2 SLP163 T02220222 PNO $
KPIB 080256Z AUTO 00000KT 10SM CLR 23/23 A3001 RMK AO2 SLP158 6//// T02280228 53004 PNO $
KPIB 080156Z AUTO VRB03KT 10SM CLR 23/23 A2999 RMK AO2 SLP153 T02280228 PNO $
KPIB 080103Z AUTO 22003KT 8SM FEW003 23/23 A3000 RMK AO2 PNO $
KPIB 080056Z AUTO 22004KT 8SM CLR 23/23 A3000 RMK AO2 RAE26 SLP156 T02280228 PNO $
KPIB 072356Z AUTO 00000KT 10SM -RA CLR 23/23 A2999 RMK AO2 SLP155 6//// T02330228 10289 20222 58010 PNO $
KPIB 072256Z AUTO 35004KT 10SM -RA SCT043 BKN050 23/22 A3002 RMK AO2 LTG DSNT NW-NE TSE14B22E37RAB2159 SLP162 T02280222 PNO $
KPIB 072243Z AUTO 34003KT 10SM -RA FEW035 SCT045 BKN050 23/22 A3001 RMK AO2 LTG DSNT N AND NE TSE14B22E37RAB2159 PNO $
KPIB 072228Z AUTO 00000KT 9SM -TSRA FEW034 BKN049 OVC065 23/22 A3002 RMK AO2 LTG DSNT N TSE14B22RAB2159 PNO $
KPIB 072220Z AUTO VRB05KT 10SM -RA FEW011 BKN047 OVC065 23/22 A3002 RMK AO2 LTG DSNT N TSE14RAB2159 PNO $
KPIB 072156Z AUTO 22008G19KT 10SM VCTS FEW013 SCT026 BKN033 24/23 A3004 RMK AO2 LTG DSNT N AND W TSE15B52RAE17 SLP170 T02440233 PNO $
KPIB 072121Z AUTO 17006KT 10SM 25/24 A3002 RMK AO2 LTG DSNT SE-W TSE15RAE17 PNO $
KPIB 072056Z AUTO 19006KT 9SM -TSRA FEW022 SCT032 BKN042 24/24 A3002 RMK AO2 LTG DSNT SE-W TSB36RAE1959B31 SLP164 6//// T02440239 53001 PNO $
KPIB 072040Z AUTO VRB03KT 2 1/2SM +TSRA BR FEW020 SCT026 BKN033 26/24 A3003 RMK AO2 LTG DSNT SE-SW TSB36RAE1959B31 PNO $
KPIB 071956Z AUTO 00000KT 10SM -RA FEW042 26/24 A3001 RMK AO2 LTG DSNT ALQDS TSE43 SLP160 T02560239 PNO $
KPIB 071949Z AUTO 00000KT 10SM -RA FEW042 26/24 A3001 RMK AO2 LTG DSNT ALQDS TSE43 PNO $
KPIB 071856Z AUTO 32009G15KT 6SM +TSRA BR FEW021 BKN033 OVC070 24/24 A3002 RMK AO2 LTG DSNT N AND NE TSB03E30B33RAE00B24 SLP164 T02440239 PNO $
KPIB 071833Z AUTO 00000KT 9SM VCTS -RA FEW046 SCT070 27/25 A3002 RMK AO2 LTG DSNT W-N TSB03E30B33RAE00B24 PNO $
KPIB 071809Z AUTO 23003KT 9SM TS CLR 28/26 A3002 RMK AO2 LTG DSNT NW TSB03RAE00 PNO $
KPIB 071756Z AUTO 00000KT 10SM -RA FEW010 SCT029 27/26 A3003 RMK AO2 LTG DSNT W AND NW RAB32 SLP166 6//// T02720256 10294 20228 57007 PNO $
KPIB 071752Z AUTO 00000KT 10SM -RA FEW010 SCT029 SCT039 27/26 A3003 RMK AO2 LTG DSNT W AND NW RAB32 PNO $
KPIB 071739Z AUTO 35004KT 2 1/2SM +RA BR FEW010 SCT018 OVC028 27/26 A3003 RMK AO2 LTG DSNT NW RAB32 PNO $
KPIB 071656Z AUTO VRB03KT 10SM BKN024 29/25 A3004 RMK AO2 SLP169 T02890250 PNO $
KPIB 071646Z AUTO VRB03KT 10SM BKN022 BKN028 28/25 A3004 RMK AO2 LTG DSNT E PNO $
KPIB 071639Z AUTO 00000KT 10SM SCT020 SCT025 BKN039 28/25 A3004 RMK AO2 LTG DSNT E PNO $
KPIB 071556Z AUTO VRB04KT 10SM BKN018 BKN025 28/25 A3004 RMK AO2 LTG DSNT N AND NW SLP170 T02830250 PNO $
KPIB 071506Z AUTO VRB04KT 10SM OVC016 28/24 A3005 RMK AO2 PNO $
KPIB 071456Z AUTO VRB03KT 10SM BKN014 OVC021 27/24 A3005 RMK AO2 SLP173 6//// T02720244 51012 PNO $
KPIB 071424Z AUTO VRB03KT 10SM BKN013 26/24 A3005 RMK AO2 PNO $
KPIB 071356Z AUTO VRB03KT 10SM BKN007 26/24 A3004 RMK AO2 CIG 006V010 SLP168 T02560239 PNO $
KPIB 101120Z 1012/1112 26005KT P6SM VCSH BKN040 
     FM101800 30007KT P6SM VCTS BKN040CB 
     FM102200 31008KT P6SM SCT050